createdAt,value
2023-05-18T00:02:43.290Z,102111.22
2023-05-18T00:05:49.323Z,102119.72
2023-05-18T00:08:54.327Z,102118.00
2023-05-18T00:11:59.958Z,102123.09
2023-05-18T00:15:05.397Z,102129.06
2023-05-18T00:18:14.344Z,102136.72
2023-05-18T00:21:19.394Z,102135.00
2023-05-18T00:24:24.959Z,102142.63
2023-05-18T00:27:30.207Z,102143.50
2023-05-18T00:30:35.202Z,102140.09
2023-05-18T00:33:41.908Z,102150.28
2023-05-18T00:36:47.002Z,102154.50
2023-05-18T00:39:51.929Z,102163.03
2023-05-18T00:42:56.988Z,102158.75
2023-05-18T00:46:02.077Z,102164.69
2023-05-18T00:49:11.121Z,102177.41
2023-05-18T00:52:16.333Z,102175.72
2023-05-18T00:55:21.440Z,102173.16
2023-05-18T00:58:27.589Z,102185.84
2023-05-18T01:01:36.339Z,102190.06
2023-05-18T01:04:43.137Z,102198.56
2023-05-18T01:07:48.852Z,102205.34
2023-05-18T01:10:57.715Z,102217.19
2023-05-18T01:14:07.708Z,102217.13
2023-05-18T01:17:22.870Z,102220.47
2023-05-18T01:20:37.990Z,102233.19
2023-05-18T01:23:59.058Z,102234.03
2023-05-18T01:27:08.108Z,102231.50
2023-05-18T01:30:14.409Z,102240.78
2023-05-18T01:33:19.610Z,102236.44
2023-05-18T01:36:25.020Z,102252.47
2023-05-18T01:39:32.213Z,102259.28
2023-05-18T01:42:44.590Z,102262.66
2023-05-18T01:45:52.600Z,102265.19
2023-05-18T01:49:02.329Z,102264.38
2023-05-18T01:52:12.809Z,102273.69
2023-05-18T01:55:19.617Z,102286.34
2023-05-18T01:58:26.542Z,102280.38
2023-05-18T02:01:31.915Z,102291.31
2023-05-18T02:04:36.928Z,102293.00
2023-05-18T02:07:44.167Z,102301.53
2023-05-18T02:10:49.385Z,102298.94
2023-05-18T02:13:55.941Z,102303.09
2023-05-18T02:17:01.281Z,102315.78
2023-05-18T02:20:08.419Z,102320.91
2023-05-18T02:23:14.523Z,102320.00
2023-05-18T02:26:19.615Z,102324.22
2023-05-18T02:29:32.186Z,102328.34
2023-05-18T02:32:39.141Z,102321.56
2023-05-18T02:35:44.670Z,102330.06
2023-05-18T02:38:50.224Z,102320.75
2023-05-18T02:41:55.358Z,102333.50
2023-05-18T02:45:02.457Z,102334.25
2023-05-18T02:48:11.187Z,102338.44
2023-05-18T02:51:16.403Z,102337.66
2023-05-18T02:54:22.486Z,102339.34
2023-05-18T02:57:27.788Z,102341.00
2023-05-18T03:00:44.675Z,102344.47
2023-05-18T03:03:49.805Z,102344.44
2023-05-18T03:06:57.479Z,102346.19
2023-05-18T03:10:05.006Z,102348.69
2023-05-18T03:13:13.003Z,102358.91
2023-05-18T03:16:19.622Z,102356.31
2023-05-18T03:19:27.103Z,102366.59
2023-05-18T03:22:32.391Z,102377.53
2023-05-18T03:25:38.391Z,102384.38
2023-05-18T03:28:44.716Z,102386.13
2023-05-18T03:31:51.771Z,102380.25
2023-05-18T03:34:57.150Z,102388.75
2023-05-18T03:38:02.382Z,102400.53
2023-05-18T03:41:07.618Z,102410.81
2023-05-18T03:44:14.714Z,102412.50
2023-05-18T03:47:22.692Z,102420.88
2023-05-18T03:50:28.726Z,102411.66
2023-05-18T03:53:36.384Z,102425.25
2023-05-18T03:56:42.222Z,102426.09
2023-05-18T03:59:47.230Z,102426.94
2023-05-18T04:02:53.769Z,102431.19
2023-05-18T04:06:02.596Z,102432.91
2023-05-18T04:09:07.673Z,102430.50
2023-05-18T04:12:13.908Z,102431.38
2023-05-18T04:15:19.187Z,102442.47
2023-05-18T04:18:28.398Z,102439.84
2023-05-18T04:21:35.489Z,102446.69
2023-05-18T04:24:41.384Z,102440.88
2023-05-18T04:27:51.146Z,102451.88
2023-05-18T04:30:56.605Z,102455.25
2023-05-18T04:34:03.109Z,102456.97
2023-05-18T04:37:08.675Z,102461.28
2023-05-18T04:40:17.270Z,102462.97
2023-05-18T04:43:24.322Z,102457.06
2023-05-18T04:46:29.804Z,102467.25
2023-05-18T04:49:36.555Z,102466.44
2023-05-18T04:52:42.053Z,102475.63
2023-05-18T04:55:50.073Z,102470.63
2023-05-18T04:58:59.389Z,102470.63
2023-05-18T05:02:04.671Z,102474.88
2023-05-18T05:05:11.973Z,102482.56
2023-05-18T05:08:17.500Z,102479.19
2023-05-18T05:11:23.392Z,102486.97
2023-05-18T05:14:28.427Z,102487.84
2023-05-18T05:17:33.502Z,102502.25
2023-05-18T05:20:40.644Z,102499.72
2023-05-18T05:23:46.438Z,102502.28
2023-05-18T05:26:51.693Z,102503.22
2023-05-18T05:29:57.096Z,102499.75
2023-05-18T05:33:02.238Z,102510.97
2023-05-18T05:36:10.161Z,102510.19
2023-05-18T05:39:15.729Z,102527.41
2023-05-18T05:42:20.990Z,102517.28
2023-05-18T05:45:28.640Z,102528.47
2023-05-18T05:48:36.940Z,102524.34
2023-05-18T05:51:43.341Z,102528.72
2023-05-18T05:54:48.494Z,102532.09
2023-05-18T05:57:53.921Z,102534.66
2023-05-18T06:00:59.477Z,102538.16
2023-05-18T06:04:06.716Z,102542.47
2023-05-18T06:07:14.324Z,102543.31
2023-05-18T06:10:21.356Z,102546.72
2023-05-18T06:13:27.203Z,102550.84
2023-05-18T06:16:34.132Z,102550.97
2023-05-18T06:19:39.261Z,102554.38
2023-05-18T06:22:46.053Z,102554.41
2023-05-18T06:26:09.821Z,102562.91
2023-05-18T06:29:54.013Z,102557.81
2023-05-18T06:33:16.323Z,102553.53
2023-05-18T06:36:21.796Z,102560.34
2023-05-18T06:39:31.482Z,102568.88
2023-05-18T06:42:37.694Z,102571.44
2023-05-18T06:46:03.058Z,102564.63
2023-05-18T06:49:12.928Z,102576.53
2023-05-18T06:52:18.203Z,102580.81
2023-05-18T06:55:25.462Z,102579.94
2023-05-18T06:58:30.635Z,102578.25
2023-05-18T07:01:39.323Z,102579.94
2023-05-18T07:04:44.591Z,102585.91
2023-05-18T07:07:49.952Z,102582.50
2023-05-18T07:10:58.113Z,102586.75
2023-05-18T07:14:03.191Z,102591.03
2023-05-18T07:17:09.142Z,102577.34
2023-05-18T07:20:14.803Z,102588.44
2023-05-18T07:23:20.024Z,102589.28
2023-05-18T07:26:26.659Z,102592.66
2023-05-18T07:29:32.281Z,102588.44
2023-05-18T07:32:37.749Z,102602.91
2023-05-18T07:35:42.843Z,102610.53
2023-05-18T07:38:48.113Z,102615.69
2023-05-18T07:41:54.518Z,102607.16
2023-05-18T07:45:06.329Z,102626.78
2023-05-18T07:48:14.280Z,102625.91
2023-05-18T07:51:19.435Z,102616.47
2023-05-18T07:54:26.762Z,102621.66
2023-05-18T07:57:33.781Z,102618.25
2023-05-18T08:00:39.021Z,102619.09
2023-05-18T08:03:44.277Z,102625.88
2023-05-18T08:06:49.735Z,102628.44
2023-05-18T08:09:54.782Z,102632.69
2023-05-18T08:13:03.948Z,102632.69
2023-05-18T08:16:12.316Z,102640.41
2023-05-18T08:19:18.046Z,102631.84
2023-05-18T08:22:23.150Z,102641.28
2023-05-18T08:25:28.420Z,102639.56
2023-05-18T08:28:34.876Z,102645.50
2023-05-18T08:31:40.564Z,102643.84
2023-05-18T08:34:45.591Z,102655.78
2023-05-18T08:37:51.498Z,102661.72
2023-05-18T08:41:04.044Z,102671.97
2023-05-18T08:44:15.518Z,102665.16
2023-05-18T08:47:26.120Z,102668.56
2023-05-18T08:50:32.768Z,102668.56
2023-05-18T08:53:40.153Z,102675.41
2023-05-18T08:56:46.253Z,102676.22
2023-05-18T08:59:54.555Z,102676.22
2023-05-18T09:02:59.803Z,102671.91
2023-05-18T09:06:05.640Z,102700.09
2023-05-18T09:09:12.219Z,102694.13
2023-05-18T09:12:18.373Z,102700.09
2023-05-18T09:15:26.133Z,102693.28
2023-05-18T09:18:31.182Z,102690.72
2023-05-18T09:21:36.445Z,102695.81
2023-05-18T09:24:41.472Z,102704.38
2023-05-18T09:27:46.925Z,102688.97
2023-05-18T09:30:54.517Z,102699.16
2023-05-18T09:34:01.566Z,102701.72
2023-05-18T09:37:06.706Z,102707.75
2023-05-18T09:40:13.306Z,102712.00
2023-05-18T09:43:19.798Z,102711.97
2023-05-18T09:46:27.028Z,102723.09
2023-05-18T09:49:32.469Z,102715.44
2023-05-18T09:52:43.572Z,102714.53
2023-05-18T09:55:51.327Z,102719.66
2023-05-18T09:58:56.732Z,102717.03
2023-05-18T10:02:05.941Z,102717.94
2023-05-18T10:05:21.353Z,102714.47
2023-05-18T10:08:26.394Z,102723.00
2023-05-18T10:11:34.342Z,102727.28
2023-05-18T10:14:39.612Z,102728.97
2023-05-18T10:17:46.697Z,102726.34
2023-05-18T10:20:53.348Z,102735.75
2023-05-18T10:23:58.935Z,102734.84
2023-05-18T10:27:08.178Z,102728.84
2023-05-18T10:30:17.884Z,102740.81
2023-05-18T10:33:29.484Z,102751.06
2023-05-18T10:36:36.045Z,102750.19
2023-05-18T10:39:42.455Z,102752.72
2023-05-18T10:42:48.100Z,102762.16
2023-05-18T10:45:55.459Z,102751.81
2023-05-18T10:49:03.109Z,102751.81
2023-05-18T10:52:08.675Z,102752.63
2023-05-18T10:55:14.381Z,102758.59
2023-05-18T10:58:21.636Z,102754.34
2023-05-18T11:01:26.915Z,102755.13
2023-05-18T11:04:33.672Z,102752.53
2023-05-18T11:07:39.288Z,102768.00
2023-05-18T11:10:47.305Z,102764.50
2023-05-18T11:13:52.801Z,102756.72
2023-05-18T11:17:18.426Z,102751.56
2023-05-18T11:20:27.383Z,102752.41
2023-05-18T11:23:33.968Z,102758.38
2023-05-18T11:26:43.516Z,102761.59
2023-05-18T11:29:49.692Z,102764.94
2023-05-18T11:33:10.497Z,102758.81
2023-05-18T11:36:20.601Z,102777.00
2023-05-18T11:39:26.128Z,102777.81
2023-05-18T11:42:35.152Z,102773.44
2023-05-18T11:45:55.102Z,102777.59
2023-05-18T11:49:05.955Z,102768.13
2023-05-18T11:52:19.996Z,102770.66
2023-05-18T11:55:25.228Z,102775.63
2023-05-18T11:58:32.674Z,102773.00
2023-05-18T12:01:37.715Z,102788.50
2023-05-18T12:04:46.732Z,102794.34
2023-05-18T12:07:55.621Z,102783.41
2023-05-18T12:11:02.446Z,102788.47
2023-05-18T12:14:08.174Z,102790.94
2023-05-18T12:17:14.690Z,102789.13
2023-05-18T12:20:21.144Z,102788.91
2023-05-18T12:23:38.584Z,102786.28
2023-05-18T12:26:46.799Z,102794.03
2023-05-18T12:29:52.072Z,102801.72
2023-05-18T12:32:58.482Z,102805.00
2023-05-18T12:36:03.688Z,102801.69
2023-05-18T12:39:10.098Z,102811.19
2023-05-18T12:42:16.214Z,102807.59
2023-05-18T12:45:22.705Z,102813.50
2023-05-18T12:48:27.831Z,102807.28
2023-05-18T12:51:36.457Z,102809.00
2023-05-18T12:54:58.778Z,102814.16
2023-05-18T12:58:04.564Z,102811.34
2023-05-18T13:01:12.424Z,102824.13
2023-05-18T13:04:17.894Z,102815.97
2023-05-18T13:07:23.193Z,102815.47
2023-05-18T13:10:32.369Z,102808.78
2023-05-18T13:13:37.510Z,102815.38
2023-05-18T13:16:46.911Z,102816.94
2023-05-18T13:19:58.873Z,102814.34
2023-05-18T13:23:05.591Z,102823.50
2023-05-18T13:26:15.143Z,102823.47
2023-05-18T13:29:20.148Z,102825.97
2023-05-18T13:32:26.495Z,102823.06
2023-05-18T13:35:32.060Z,102811.56
2023-05-18T13:38:37.637Z,102822.00
2023-05-18T13:41:44.067Z,102818.31
2023-05-18T13:44:49.312Z,102817.59
2023-05-18T13:47:54.594Z,102818.44
2023-05-18T13:50:59.751Z,102831.06
2023-05-18T13:54:04.995Z,102827.81
2023-05-18T13:57:13.424Z,102829.97
2023-05-18T14:00:20.750Z,102828.38
2023-05-18T14:03:26.405Z,102826.59
2023-05-18T14:06:32.101Z,102825.63
2023-05-18T14:09:37.382Z,102829.31
2023-05-18T14:12:43.904Z,102816.22
2023-05-18T14:15:49.095Z,102826.69
2023-05-18T14:18:53.934Z,102813.69
2023-05-18T14:21:59.056Z,102829.03
2023-05-18T14:25:04.141Z,102821.38
2023-05-18T14:28:11.457Z,102826.53
2023-05-18T14:31:16.512Z,102822.94
2023-05-18T14:34:21.629Z,102819.53
2023-05-18T14:37:26.610Z,102814.22
2023-05-18T14:40:31.912Z,102835.16
2023-05-18T14:43:38.557Z,102826.53
2023-05-18T14:46:44.050Z,102821.22
2023-05-18T14:49:49.104Z,102815.03
2023-05-18T14:52:54.971Z,102818.38
2023-05-18T14:56:04.241Z,102827.09
2023-05-18T14:59:12.239Z,102822.69
2023-05-18T15:02:17.948Z,102815.19
2023-05-18T15:05:23.398Z,102822.72
2023-05-18T15:08:28.463Z,102835.75
2023-05-18T15:11:33.524Z,102826.13
2023-05-18T15:14:39.897Z,102823.69
2023-05-18T15:17:45.364Z,102829.50
2023-05-18T15:20:50.364Z,102825.25
2023-05-18T15:23:55.420Z,102830.50
2023-05-18T15:27:00.915Z,102825.25
2023-05-18T15:30:11.560Z,102829.06
2023-05-18T15:33:16.545Z,102821.06
2023-05-18T15:36:22.230Z,102823.13
2023-05-18T15:39:27.593Z,102822.06
2023-05-18T15:42:33.745Z,102817.69
2023-05-18T15:45:40.317Z,102819.66
2023-05-18T15:48:45.348Z,102831.69
2023-05-18T15:51:50.396Z,102828.97
2023-05-18T15:54:55.476Z,102826.47
2023-05-18T15:58:00.684Z,102828.22
2023-05-18T16:01:07.819Z,102832.44
2023-05-18T16:04:16.222Z,102839.53
2023-05-18T16:07:21.591Z,102836.88
2023-05-18T16:10:26.700Z,102836.00
2023-05-18T16:13:31.797Z,102823.97
2023-05-18T16:16:38.601Z,102813.56
2023-05-18T16:19:43.715Z,102815.47
2023-05-18T16:22:49.339Z,102820.66
2023-05-18T16:25:54.402Z,102816.38
2023-05-18T16:28:59.444Z,102816.34
2023-05-18T16:32:06.542Z,102811.22
2023-05-18T16:35:12.151Z,102814.72
2023-05-18T16:38:17.185Z,102811.34
2023-05-18T16:41:22.816Z,102812.28
2023-05-18T16:44:27.958Z,102823.38
2023-05-18T16:47:34.368Z,102817.59
2023-05-18T16:50:39.374Z,102815.03
2023-05-18T16:53:44.460Z,102822.75
2023-05-18T16:56:49.681Z,102822.81
2023-05-18T16:59:54.765Z,102816.88
2023-05-18T17:03:03.253Z,102827.28
2023-05-18T17:06:09.338Z,102820.34
2023-05-18T17:09:16.454Z,102818.66
2023-05-18T17:12:21.691Z,102819.53
2023-05-18T17:15:27.146Z,102823.06
2023-05-18T17:18:33.706Z,102824.06
2023-05-18T17:21:38.796Z,102828.44
2023-05-18T17:24:43.840Z,102824.06
2023-05-18T17:27:48.957Z,102826.69
2023-05-18T17:30:53.989Z,102831.66
2023-05-18T17:34:00.739Z,102834.44
2023-05-18T17:37:08.175Z,102832.75
2023-05-18T17:40:15.014Z,102843.03
2023-05-18T17:43:20.353Z,102833.81
2023-05-18T17:46:25.908Z,102842.44
2023-05-18T17:49:32.507Z,102842.50
2023-05-18T17:52:37.540Z,102835.56
2023-05-18T17:55:46.370Z,102842.69
2023-05-18T17:58:51.474Z,102839.28
2023-05-18T18:01:56.798Z,102843.63
2023-05-18T18:05:03.608Z,102843.59
2023-05-18T18:08:09.428Z,102849.66
2023-05-18T18:11:14.919Z,102841.22
2023-05-18T18:14:20.274Z,102848.13
2023-05-18T18:17:25.155Z,102853.38
2023-05-18T18:20:36.968Z,102852.69
2023-05-18T18:23:42.253Z,102848.44
2023-05-18T18:26:49.106Z,102853.69
2023-05-18T18:29:54.363Z,102857.94
2023-05-18T18:32:59.591Z,102865.69
2023-05-18T18:36:07.679Z,102854.63
2023-05-18T18:39:14.207Z,102864.09
2023-05-18T18:42:21.482Z,102872.63
2023-05-18T18:45:27.027Z,102876.09
2023-05-18T18:48:32.176Z,102874.44
2023-05-18T18:51:38.616Z,102877.13
2023-05-18T18:54:43.777Z,102875.56
2023-05-18T18:57:48.952Z,102881.63
2023-05-18T19:00:54.131Z,102882.50
2023-05-18T19:03:59.235Z,102880.91
2023-05-18T19:07:06.124Z,102883.50
2023-05-18T19:10:12.645Z,102884.38
2023-05-18T19:13:17.907Z,102902.56
2023-05-18T19:16:23.096Z,102910.16
2023-05-18T19:19:29.695Z,102900.00
2023-05-18T19:22:36.009Z,102898.38
2023-05-18T19:25:41.069Z,102906.06
2023-05-18T19:28:46.107Z,102906.97
2023-05-18T19:31:51.195Z,102916.47
2023-05-18T19:34:56.334Z,102913.09
2023-05-18T19:38:03.447Z,102915.72
2023-05-18T19:41:08.623Z,102924.28
2023-05-18T19:44:14.164Z,102930.31
2023-05-18T19:47:19.197Z,102927.75
2023-05-18T19:50:24.427Z,102937.19
2023-05-18T19:53:30.785Z,102944.03
2023-05-18T19:56:37.075Z,102950.06
2023-05-18T19:59:42.836Z,102947.50
2023-05-18T20:02:48.015Z,102942.38
2023-05-18T20:05:53.149Z,102942.41
2023-05-18T20:09:00.707Z,102952.69
2023-05-18T20:12:06.314Z,102942.41
2023-05-18T20:15:13.915Z,102938.19
2023-05-18T20:18:23.386Z,102947.56
2023-05-18T20:21:29.945Z,102944.16
2023-05-18T20:24:36.321Z,102951.00
2023-05-18T20:27:41.413Z,102942.44
2023-05-18T20:30:46.874Z,102951.03
2023-05-18T20:33:53.976Z,102957.88
2023-05-18T20:36:58.920Z,102957.00
2023-05-18T20:40:09.560Z,102962.13
2023-05-18T20:43:18.081Z,102960.41
2023-05-18T20:46:25.138Z,102963.81
2023-05-18T20:49:30.165Z,102963.81
2023-05-18T20:52:35.411Z,102970.66
2023-05-18T20:55:42.395Z,102975.75
2023-05-18T20:58:48.579Z,102974.91
2023-05-18T21:01:53.534Z,102980.03
2023-05-18T21:04:58.558Z,102983.47
2023-05-18T21:08:06.492Z,102987.72
2023-05-18T21:11:14.906Z,102986.84
2023-05-18T21:14:19.887Z,102997.91
2023-05-18T21:17:24.977Z,102997.06
2023-05-18T21:20:30.403Z,102993.59
2023-05-18T21:23:35.650Z,102992.75
2023-05-18T21:26:42.444Z,103000.44
2023-05-18T21:29:47.880Z,103003.88
2023-05-18T21:32:53.230Z,103003.03
2023-05-18T21:35:58.880Z,103007.28
2023-05-18T21:39:04.352Z,103003.81
2023-05-18T21:42:10.942Z,103005.53
2023-05-18T21:45:17.436Z,103006.41
2023-05-18T21:48:22.458Z,103010.63
2023-05-18T21:51:27.528Z,103013.16
2023-05-18T21:54:33.584Z,103015.69
2023-05-18T21:57:39.960Z,103014.78
2023-05-18T22:00:44.999Z,103012.25
2023-05-18T22:03:50.165Z,103015.63
2023-05-18T22:06:55.613Z,103010.47
2023-05-18T22:10:00.657Z,103013.06
2023-05-18T22:13:07.017Z,103004.53
2023-05-18T22:16:13.034Z,103013.84
2023-05-18T22:19:18.286Z,103007.81
2023-05-18T22:25:34.131Z,103003.53
2023-05-18T22:28:40.528Z,103005.16
2023-05-18T22:31:45.699Z,103012.94
2023-05-18T22:34:50.845Z,103020.50
2023-05-18T22:37:56.433Z,103012.06
2023-05-18T22:41:01.408Z,103016.34
2023-05-18T22:44:08.148Z,103021.44
2023-05-18T22:47:19.609Z,103021.44
2023-05-18T22:50:24.633Z,103020.56
2023-05-18T22:53:29.631Z,103019.69
2023-05-18T22:56:34.813Z,103017.91
2023-05-18T22:59:41.375Z,103020.41
2023-05-18T23:02:46.458Z,103020.47
2023-05-18T23:05:51.541Z,103027.19
2023-05-18T23:08:56.684Z,103030.59
2023-05-18T23:12:01.606Z,103025.53
2023-05-18T23:15:10.791Z,103025.50
2023-05-18T23:18:15.774Z,103016.97
2023-05-18T23:21:21.642Z,103029.75
2023-05-18T23:24:26.878Z,103016.97
2023-05-18T23:27:32.187Z,103022.91
2023-05-18T23:30:38.509Z,103030.59
2023-05-18T23:33:44.229Z,103027.19
2023-05-18T23:36:54.625Z,103039.97
2023-05-18T23:40:03.848Z,103038.28
2023-05-18T23:43:09.357Z,103039.97
2023-05-18T23:46:17.088Z,103035.59
2023-05-18T23:49:22.809Z,103041.59
2023-05-18T23:52:28.338Z,103047.50
2023-05-18T23:55:34.426Z,103053.47
2023-05-18T23:58:41.308Z,103043.19
